Time;durP1;ratioP1;P1;durP2;ratioP2;P2;SDS_P1;SDS_P2;PMS_P1;PMS_P2;Temp;Humidity;BMP_temperature;BMP_pressure;BME280_temperature;BME280_humidity;BME280_pressure;Samples;Min_cycle;Max_cycle;Signal;HPM_P1;HPM_P2
2021/05/11 00:01:44;;;;;;;1.08;0.30;;;;;;;28.67;30.30;95835.72;5025654;28;20315;-28
2021/05/11 00:04:11;;;;;;;1.33;0.30;;;;;;;28.67;30.36;95833.06;5034185;28;20037;-33
2021/05/11 00:06:37;;;;;;;0.73;0.40;;;;;;;28.67;30.21;95833.06;5026535;28;20017;-30
2021/05/11 00:09:03;;;;;;;0.68;0.40;;;;;;;28.66;30.13;95857.75;5030244;28;20553;-30
2021/05/11 00:11:29;;;;;;;0.38;0.30;;;;;;;28.67;30.21;95848.88;5040625;28;20115;-29
2021/05/11 00:13:54;;;;;;;0.20;0.20;;;;;;;28.66;30.26;95863.03;5030869;28;20036;-28
2021/05/11 00:16:20;;;;;;;1.25;0.20;;;;;;;28.66;30.15;95856.91;5028300;28;20032;-29
2021/05/11 00:18:45;;;;;;;1.42;0.32;;;;;;;28.66;30.14;95857.75;5037453;28;20033;-29
2021/05/11 00:21:11;;;;;;;2.10;0.30;;;;;;;28.67;30.12;95853.31;5024898;28;20091;-30
2021/05/11 00:23:36;;;;;;;0.45;0.30;;;;;;;28.66;30.22;95849.00;5033789;28;20025;-29
2021/05/11 00:26:02;;;;;;;0.57;0.20;;;;;;;28.66;30.14;95847.22;5033710;28;20055;-29
2021/05/11 00:28:27;;;;;;;1.60;0.30;;;;;;;28.67;30.22;95854.16;5027884;28;20036;-32
2021/05/11 00:30:53;;;;;;;0.10;0.10;;;;;;;28.66;30.30;95836.69;5031232;28;20040;-27
2021/05/11 00:33:18;;;;;;;1.08;0.40;;;;;;;28.66;30.16;95841.94;5029651;28;20028;-31
2021/05/11 00:35:44;;;;;;;0.82;0.40;;;;;;;28.66;30.24;95836.69;5038033;28;20053;-28
2021/05/11 00:38:09;;;;;;;0.35;0.35;;;;;;;28.67;30.22;95835.72;5031853;28;20056;-30
2021/05/11 00:40:34;;;;;;;0.20;0.20;;;;;;;28.67;30.28;95843.63;5031760;28;20265;-28
2021/05/11 00:43:00;;;;;;;0.75;0.35;;;;;;;28.67;30.04;95840.97;5024104;28;20032;-29
2021/05/11 00:45:25;;;;;;;0.85;0.40;;;;;;;28.68;30.23;95828.66;5030627;28;20037;-28
2021/05/11 00:47:51;;;;;;;2.15;0.30;;;;;;;28.67;30.07;95826.94;5040614;28;20033;-28
2021/05/11 00:50:16;;;;;;;0.50;0.20;;;;;;;28.67;30.21;95842.78;5032047;28;20036;-27
2021/05/11 00:52:41;;;;;;;0.40;0.25;;;;;;;28.68;30.19;95849.75;5026930;28;20045;-31
2021/05/11 00:55:07;;;;;;;0.98;0.28;;;;;;;28.67;30.08;95827.81;5029178;28;20232;-32
2021/05/11 00:57:34;;;;;;;0.50;0.28;;;;;;;28.66;30.14;95814.75;5041890;28;20036;-29
2021/05/11 01:00:00;;;;;;;0.30;0.30;;;;;;;28.67;29.93;95800.59;5028326;28;20029;-28
2021/05/11 01:02:25;;;;;;;1.15;0.40;;;;;;;28.65;30.17;95808.63;5032985;28;20074;-28
2021/05/11 01:04:50;;;;;;;0.45;0.30;;;;;;;28.66;30.25;95804.19;5017972;28;20429;-29
2021/05/11 01:07:16;;;;;;;1.08;0.40;;;;;;;28.65;30.39;95813.88;5026937;28;20025;-29
2021/05/11 01:09:41;;;;;;;2.38;0.32;;;;;;;28.66;30.04;95804.19;5037981;28;20771;-29
2021/05/11 01:12:07;;;;;;;0.73;0.40;;;;;;;28.64;30.29;95801.69;5032254;28;20032;-27
2021/05/11 01:14:32;;;;;;;0.93;0.32;;;;;;;28.64;30.26;95795.59;5031696;28;20075;-30
2021/05/11 01:17:00;;;;;;;0.57;0.20;;;;;;;28.63;30.21;95794.75;5029023;28;20442;-27
2021/05/11 01:22:51;;;;;;;0.40;0.35;;;;;;;28.63;30.16;95778.94;5036574;28;20033;-31
2021/05/11 01:24:59;;;;;;;0.40;0.20;;;;;;;28.63;30.13;95786.84;5017042;28;20052;-28
2021/05/11 01:44:00;;;;;;;1.75;0.30;;;;;;;28.60;30.16;95788.88;5031258;28;20040;-30
2021/05/11 02:23:43;;;;;;;0.25;0.22;;;;;;;28.55;30.14;95794.50;5030036;28;20122;-29
2021/05/11 02:26:08;;;;;;;0.20;0.20;;;;;;;28.55;30.20;95792.72;5030556;28;20032;-33
2021/05/11 02:28:34;;;;;;;0.20;0.10;;;;;;;28.56;30.14;95783.84;5032191;28;20977;-29
2021/05/11 02:30:59;;;;;;;0.32;0.20;;;;;;;28.55;30.19;95789.25;5033948;28;20049;-29
2021/05/11 02:33:25;;;;;;;0.10;0.10;;;;;;;28.56;30.05;95791.75;5024762;28;20025;-31
2021/05/11 02:35:50;;;;;;;0.38;0.20;;;;;;;28.56;30.08;95788.28;5029673;28;20457;-29
2021/05/11 02:38:16;;;;;;;0.30;0.20;;;;;;;28.56;30.35;95777.72;5032478;28;20702;-33
2021/05/11 02:40:41;;;;;;;0.20;0.20;;;;;;;28.56;30.12;95788.28;5029525;28;20727;-32
2021/05/11 02:43:23;;;;;;;0.73;0.30;;;;;;;28.55;30.38;95765.53;5025308;28;20029;-29
2021/05/11 02:45:49;;;;;;;1.38;0.57;;;;;;;28.55;30.18;95790.09;5030138;28;20024;-28
2021/05/11 02:48:14;;;;;;;0.75;0.30;;;;;;;28.56;30.23;95783.00;5035353;28;20086;-31
2021/05/11 02:50:39;;;;;;;1.45;0.20;;;;;;;28.55;30.10;95781.34;5034680;28;20800;-29
2021/05/11 02:53:05;;;;;;;0.93;0.30;;;;;;;28.56;30.20;95793.53;5027685;28;20039;-30
2021/05/11 02:55:31;;;;;;;0.68;0.20;;;;;;;28.55;30.11;95783.97;5013011;28;20036;-28
2021/05/11 02:57:56;;;;;;;3.78;1.33;;;;;;;28.56;30.35;95798.81;5027437;28;20028;-30
2021/05/11 03:00:22;;;;;;;1.75;0.45;;;;;;;28.55;30.45;95789.25;5028843;28;20033;-32
2021/05/11 03:02:48;;;;;;;0.65;0.32;;;;;;;28.54;30.30;95795.47;5019823;28;20035;-27
2021/05/11 03:05:14;;;;;;;1.05;0.30;;;;;;;28.55;30.34;95794.50;5013989;28;22984;-29
2021/05/11 03:07:39;;;;;;;3.58;0.40;;;;;;;28.55;30.15;95791.88;5013124;28;20053;-31
2021/05/11 03:10:06;;;;;;;0.82;0.30;;;;;;;28.54;30.42;95784.94;5025680;28;20107;-30
2021/05/11 03:12:32;;;;;;;0.77;0.28;;;;;;;28.55;30.41;95786.59;5033243;28;20033;-29
2021/05/11 03:14:57;;;;;;;1.63;0.98;;;;;;;28.54;30.37;95779.66;5030153;28;20055;-32
2021/05/11 03:17:23;;;;;;;0.63;0.30;;;;;;;28.55;30.34;95786.59;5030741;28;20117;-31
2021/05/11 03:19:48;;;;;;;0.90;0.30;;;;;;;28.54;30.24;95777.03;5030372;28;20029;-30
2021/05/11 03:22:13;;;;;;;1.10;0.25;;;;;;;28.54;30.15;95774.41;5035652;28;20036;-31
2021/05/11 03:24:43;;;;;;;0.20;0.20;;;;;;;28.53;30.10;95784.09;5029844;28;20043;-32
2021/05/11 03:27:09;;;;;;;0.60;0.25;;;;;;;28.53;30.31;95780.63;5023269;28;20048;-28
2021/05/11 03:29:34;;;;;;;0.63;0.20;;;;;;;28.52;30.24;95781.56;5033949;28;20129;-29
2021/05/11 03:31:59;;;;;;;0.20;0.20;;;;;;;28.53;30.18;95772.72;5025739;28;20048;-33
2021/05/11 03:34:25;;;;;;;0.40;0.20;;;;;;;28.52;30.46;95760.50;5024115;28;20036;-32
2021/05/11 03:36:52;;;;;;;0.57;0.20;;;;;;;28.52;30.10;95766.63;5029734;28;20481;-28
2021/05/11 03:39:18;;;;;;;0.32;0.10;;;;;;;28.52;30.36;95761.34;5032270;28;20930;-31
2021/05/11 03:41:47;;;;;;;0.30;0.30;;;;;;;28.51;30.10;95749.13;5027412;28;20048;-29
2021/05/11 03:44:18;;;;;;;0.70;0.20;;;;;;;28.51;30.33;95738.59;5032879;28;20027;-28
2021/05/11 03:46:43;;;;;;;0.52;0.22;;;;;;;28.51;30.07;95735.09;5028475;28;20037;-29
2021/05/11 03:49:09;;;;;;;0.30;0.20;;;;;;;28.51;30.26;95737.75;5040120;28;20451;-32
2021/05/11 03:51:35;;;;;;;0.38;0.20;;;;;;;28.50;30.15;95731.66;5031315;28;20470;-29
2021/05/11 03:54:00;;;;;;;0.32;0.30;;;;;;;28.51;30.38;95738.59;5024996;28;20136;-27
2021/05/11 03:56:26;;;;;;;1.75;0.30;;;;;;;28.49;30.28;95737.03;5023707;28;20037;-29
2021/05/11 03:58:52;;;;;;;0.32;0.13;;;;;;;28.50;30.18;95747.47;5026140;28;20128;-27
2021/05/11 04:01:17;;;;;;;0.77;0.32;;;;;;;28.49;30.08;95734.41;5030217;28;20828;-27
2021/05/11 04:03:43;;;;;;;0.65;0.20;;;;;;;28.50;30.37;95731.66;5037247;28;20033;-34
2021/05/11 04:06:08;;;;;;;0.13;0.13;;;;;;;28.46;30.35;95719.69;5025708;28;20694;-31
2021/05/11 04:11:11;;;;;;;0.47;0.30;;;;;;;28.50;30.20;95722.91;5033673;28;20033;-33
2021/05/11 04:18:45;;;;;;;0.22;0.20;;;;;;;28.49;30.28;95729.13;5036078;28;20087;-29
2021/05/11 04:21:10;;;;;;;0.40;0.40;;;;;;;28.47;30.20;95731.03;5029287;28;20036;-30
2021/05/11 04:23:36;;;;;;;0.40;0.25;;;;;;;28.47;30.15;95723.13;5035577;28;20037;-27
2021/05/11 04:26:01;;;;;;;0.50;0.25;;;;;;;28.47;30.47;95724.00;5031653;28;20028;-27
2021/05/11 04:28:27;;;;;;;0.30;0.20;;;;;;;28.46;30.20;95724.09;5021933;28;20090;-29
2021/05/11 04:30:52;;;;;;;0.35;0.20;;;;;;;28.46;30.28;95718.84;5031795;28;20073;-29
2021/05/11 04:33:18;;;;;;;0.30;0.10;;;;;;;28.46;30.17;95714.41;5037537;28;20085;-30
2021/05/11 04:35:43;;;;;;;0.52;0.20;;;;;;;28.46;30.21;95713.56;5031960;28;20661;-29
2021/05/11 04:38:09;;;;;;;0.35;0.28;;;;;;;28.46;30.28;95718.84;5033013;28;20266;-33
2021/05/11 04:40:34;;;;;;;0.45;0.20;;;;;;;28.47;30.36;95731.03;5029514;28;20028;-32
2021/05/11 04:43:00;;;;;;;0.43;0.20;;;;;;;28.41;30.13;95722.69;5035040;28;20036;-31
2021/05/11 04:45:27;;;;;;;0.30;0.25;;;;;;;28.46;30.30;95726.75;5032848;28;20119;-30
2021/05/11 04:47:55;;;;;;;0.65;0.32;;;;;;;28.43;30.32;95726.03;5034564;28;20812;-33
2021/05/11 04:50:22;;;;;;;0.88;0.20;;;;;;;28.45;30.30;95738.25;5018873;28;20090;-28
2021/05/11 04:52:47;;;;;;;4.22;1.50;;;;;;;28.45;30.32;95738.25;5034113;28;20745;-28
2021/05/11 04:55:13;;;;;;;3.33;0.80;;;;;;;28.45;30.41;95744.34;5034557;28;20033;-28
2021/05/11 04:57:39;;;;;;;1.40;0.30;;;;;;;28.45;30.42;95760.16;5023593;28;20028;-30
2021/05/11 05:00:05;;;;;;;0.52;0.40;;;;;;;28.45;30.51;95764.59;5035786;28;20032;-33
2021/05/11 05:02:31;;;;;;;1.88;0.40;;;;;;;28.41;30.51;95759.56;5035070;28;20037;-30
2021/05/11 05:04:57;;;;;;;0.95;0.43;;;;;;;28.43;30.39;95762.09;5033344;28;20483;-26
2021/05/11 05:07:22;;;;;;;2.47;0.20;;;;;;;28.43;30.30;95747.13;5028912;28;20024;-27
2021/05/11 05:09:47;;;;;;;0.90;0.40;;;;;;;28.45;30.16;95743.53;5041374;28;20638;-28
2021/05/11 05:12:13;;;;;;;0.38;0.20;;;;;;;28.43;30.30;95733.94;5033790;28;20032;-30
2021/05/11 05:14:38;;;;;;;0.40;0.20;;;;;;;28.43;30.43;95726.03;5023705;28;20590;-30
2021/05/11 05:17:03;;;;;;;0.60;0.30;;;;;;;28.43;30.27;95736.59;5037076;28;20025;-29
2021/05/11 05:19:29;;;;;;;0.50;0.35;;;;;;;28.42;30.37;95742.78;5031698;28;20024;-28
2021/05/11 05:21:54;;;;;;;0.45;0.45;;;;;;;28.43;30.17;95756.81;5028250;28;20041;-30
2021/05/11 05:24:25;;;;;;;0.50;0.30;;;;;;;28.41;30.45;95762.22;5032502;28;20454;-28
2021/05/11 05:26:52;;;;;;;0.82;0.40;;;;;;;28.42;30.30;95755.16;5032180;28;20041;-31
2021/05/11 05:29:18;;;;;;;1.50;0.50;;;;;;;28.42;30.30;95745.44;5032830;28;20033;-30
2021/05/11 05:31:43;;;;;;;1.05;0.30;;;;;;;28.42;30.24;95734.88;5033330;28;20079;-29
2021/05/11 05:34:09;;;;;;;0.52;0.43;;;;;;;28.42;30.39;95739.34;5026030;28;20036;-28
2021/05/11 05:36:34;;;;;;;0.57;0.20;;;;;;;28.39;30.27;95745.69;5029439;28;20034;-30
2021/05/11 05:39:00;;;;;;;0.85;0.45;;;;;;;28.41;30.30;95749.03;5030609;28;20036;-29
2021/05/11 05:41:25;;;;;;;0.68;0.40;;;;;;;28.42;30.29;95747.25;5029382;28;20159;-28
2021/05/11 05:43:51;;;;;;;1.02;0.35;;;;;;;28.41;30.35;95754.31;5037607;28;20029;-29
2021/05/11 05:46:16;;;;;;;0.50;0.30;;;;;;;28.41;30.31;95742.91;5021378;28;20027;-30
2021/05/11 05:48:43;;;;;;;0.30;0.20;;;;;;;28.42;30.33;95741.97;5028308;28;20036;-27
2021/05/11 05:51:09;;;;;;;1.80;0.50;;;;;;;28.41;30.25;95754.31;5033599;28;20033;-27
2021/05/11 05:53:38;;;;;;;0.43;0.30;;;;;;;28.41;30.30;95750.81;5035025;28;20825;-30
2021/05/11 05:56:04;;;;;;;0.68;0.52;;;;;;;28.40;30.25;95760.53;5023052;28;20020;-28
2021/05/11 05:58:30;;;;;;;0.80;0.50;;;;;;;28.42;30.29;95768.31;5033407;28;20029;-28
2021/05/11 06:01:02;;;;;;;0.40;0.38;;;;;;;28.41;30.40;95766.63;5020988;28;20118;-31
2021/05/11 06:03:38;;;;;;;2.63;0.50;;;;;;;28.41;30.25;95766.63;5030518;28;20074;-29
2021/05/11 06:06:07;;;;;;;0.40;0.30;;;;;;;28.37;30.18;95750.22;5023475;28;20024;-32
2021/05/11 06:08:33;;;;;;;0.45;0.45;;;;;;;28.40;30.26;95757.91;5017665;28;20495;-30
2021/05/11 06:13:36;;;;;;;0.28;0.28;;;;;;;28.41;30.21;95740.28;5036610;28;20032;-27
2021/05/11 06:18:45;;;;;;;0.90;0.60;;;;;;;28.40;30.28;95735.97;5023028;28;20045;-29
2021/05/11 06:21:11;;;;;;;0.93;0.32;;;;;;;28.40;30.38;95730.72;5037661;28;20702;-30
2021/05/11 06:23:36;;;;;;;1.05;0.60;;;;;;;28.39;30.42;95729.88;5037489;28;20036;-28
2021/05/11 06:26:02;;;;;;;2.53;0.47;;;;;;;28.38;30.36;95716.84;5025130;28;20025;-30
2021/05/11 06:28:27;;;;;;;3.17;0.60;;;;;;;28.39;30.29;95707.97;5028938;28;20557;-31
2021/05/11 06:30:52;;;;;;;0.90;0.80;;;;;;;28.39;30.58;95700.91;5027808;28;20186;-32
2021/05/11 06:33:18;;;;;;;1.98;0.90;;;;;;;28.39;30.44;95714.06;5021757;28;20090;-31
2021/05/11 06:35:44;;;;;;;3.22;1.05;;;;;;;28.38;30.45;95720.28;5024192;28;20032;-29
2021/05/11 06:38:10;;;;;;;9.60;1.33;;;;;;;28.39;30.47;95729.88;5024929;28;20099;-28
2021/05/11 06:40:38;;;;;;;6.22;1.90;;;;;;;28.37;30.46;95721.25;5025373;28;21095;-28
2021/05/11 06:43:03;;;;;;;7.03;2.30;;;;;;;28.39;30.55;95718.50;5020833;28;20028;-28
2021/05/11 06:48:17;;;;;;;6.70;2.30;;;;;;;28.39;30.51;95729.03;5023807;28;20032;-31
2021/05/11 06:52:43;;;;;;;6.78;2.30;;;;;;;28.38;30.37;95720.28;5022671;28;20085;-30
2021/05/11 06:53:34;;;;;;;15.80;6.07;;;;;;;28.38;30.40;95701.03;5021607;28;20029;-29
2021/05/11 06:56:00;;;;;;;8.65;6.18;;;;;;;28.37;30.17;95697.53;5023307;28;20039;-28
2021/05/11 06:58:25;;;;;;;7.18;5.68;;;;;;;28.34;30.07;95705.69;5022794;28;20024;-33
2021/05/11 07:00:52;;;;;;;9.80;6.75;;;;;;;28.32;30.25;95704.97;5022993;28;21075;-30
2021/05/11 07:03:20;;;;;;;9.05;5.65;;;;;;;28.29;30.19;95698.16;5016429;28;20055;-28
2021/05/11 07:05:51;;;;;;;9.38;5.63;;;;;;;28.28;30.01;95701.78;5025030;28;20605;-30
2021/05/11 07:08:22;;;;;;;10.90;5.65;;;;;;;28.27;30.09;95707.16;5027434;28;20081;-30
2021/05/11 07:10:53;;;;;;;9.25;5.55;;;;;;;28.25;30.10;95716.94;5023942;28;20111;-29
2021/05/11 07:13:18;;;;;;;11.13;5.25;;;;;;;28.23;30.01;95708.34;5023404;28;20032;-27
2021/05/11 07:15:47;;;;;;;8.02;5.38;;;;;;;28.23;29.93;95708.34;5024756;28;20129;-29
2021/05/11 07:18:16;;;;;;;7.32;4.80;;;;;;;28.22;30.02;95706.66;5023956;28;20060;-29
2021/05/11 07:20:46;;;;;;;9.82;4.75;;;;;;;28.21;29.99;95707.59;5026391;28;20082;-28
2021/05/11 07:23:16;;;;;;;11.85;5.22;;;;;;;28.20;30.00;95698.03;5024265;28;20446;-33
2021/05/11 07:31:08;;;;;;;6.45;4.53;;;;;;;28.15;30.05;95665.00;5025154;28;20041;-30
2021/05/11 07:33:43;;;;;;;5.68;4.40;;;;;;;28.15;30.05;95672.09;5024177;28;20024;-28
2021/05/11 07:36:10;;;;;;;7.22;4.50;;;;;;;28.12;30.03;95665.28;5025179;28;20040;-31
2021/05/11 07:38:35;;;;;;;5.35;4.32;;;;;;;28.09;30.13;95657.59;5024386;28;20072;-31
2021/05/11 07:41:01;;;;;;;7.82;4.47;;;;;;;28.11;30.06;95668.84;5023521;28;20108;-28
2021/05/11 07:43:27;;;;;;;5.43;3.85;;;;;;;28.11;29.91;95665.38;5021879;28;20028;-28
2021/05/11 08:10:27;;;;;;;11.60;7.85;;;;;;;27.44;29.97;95710.03;5030023;28;20032;-28
2021/05/11 08:15:36;;;;;;;7.88;7.07;;;;;;;27.03;30.39;95694.66;5034306;28;20032;-30
2021/05/11 08:27:26;;;;;;;7.38;3.90;;;;;;;26.79;31.01;95679.78;5021996;28;20403;-29
2021/05/11 08:28:56;;;;;;;8.50;2.70;;;;;;;26.84;31.09;95696.03;5031949;28;20091;-28
2021/05/11 08:31:21;;;;;;;7.32;2.40;;;;;;;26.87;31.13;95676.56;5035589;28;20757;-30
2021/05/11 08:33:46;;;;;;;6.18;2.33;;;;;;;26.92;31.07;95650.75;5028905;28;20635;-27
2021/05/11 08:36:12;;;;;;;3.60;2.40;;;;;;;26.97;31.07;95627.59;5039154;28;20533;-30
2021/05/11 08:38:37;;;;;;;5.80;2.20;;;;;;;27.03;31.03;95615.78;5039229;28;20029;-32
2021/05/11 08:41:03;;;;;;;3.30;2.60;;;;;;;27.08;31.01;95634.69;5035308;28;20033;-28
2021/05/11 08:43:36;;;;;;;5.60;2.30;;;;;;;27.15;31.05;95653.44;5037401;28;20587;-30
2021/05/11 08:46:03;;;;;;;4.78;2.10;;;;;;;27.20;31.08;95661.00;5028277;28;20505;-30
2021/05/11 08:48:29;;;;;;;3.90;2.10;;;;;;;27.25;31.02;95656.22;5032870;28;20562;-30
2021/05/11 08:51:19;;;;;;;5.28;2.05;;;;;;;27.29;31.02;95668.19;5040065;28;21438;-29
2021/05/11 10:13:20;;;;;;;9.00;3.10;;;;;;;28.02;30.74;95674.84;5036442;28;20044;-33
2021/05/11 10:36:24;;;;;;;7.28;2.70;;;;;;;28.10;30.87;95680.34;5025553;28;20044;-28
2021/05/11 10:48:29;;;;;;;10.40;5.00;;;;;;;27.96;29.92;95667.44;5023389;28;20830;-29
2021/05/11 10:51:05;;;;;;;7.40;4.53;;;;;;;27.92;30.00;95665.06;5023723;28;20028;-26
2021/05/11 10:53:46;;;;;;;10.27;4.65;;;;;;;27.89;29.99;95675.81;5025253;28;20028;-31
2021/05/11 10:56:41;;;;;;;9.15;5.20;;;;;;;27.86;29.81;95681.34;5024497;28;20032;-31
2021/05/11 10:59:07;;;;;;;8.90;5.18;;;;;;;27.83;29.86;95681.59;5017218;28;20064;-31
2021/05/11 11:01:33;;;;;;;9.95;5.20;;;;;;;27.81;29.94;95688.78;5024966;28;20152;-31
2021/05/11 11:04:10;;;;;;;5.45;4.38;;;;;;;27.77;30.00;95688.16;5024299;28;20430;-31
2021/05/11 11:06:58;;;;;;;21.38;4.93;;;;;;;27.75;29.95;95694.50;5022124;28;20618;-30
2021/05/11 11:09:39;;;;;;;18.13;4.68;;;;;;;27.74;30.09;95690.22;5025081;28;20109;-28
2021/05/11 11:12:07;;;;;;;8.80;4.63;;;;;;;27.74;30.20;95687.59;5020260;28;20028;-30
2021/05/11 11:14:36;;;;;;;13.00;5.05;;;;;;;27.75;30.26;95681.34;5011580;28;20115;-28
2021/05/11 11:17:05;;;;;;;9.90;4.65;;;;;;;27.74;30.23;95671.78;5025377;28;20655;-30
2021/05/11 11:19:31;;;;;;;9.52;4.25;;;;;;;27.74;30.33;95669.16;5024661;28;20637;-31
2021/05/11 11:24:29;;;;;;;4.78;3.75;;;;;;;27.74;30.22;95662.09;5023360;28;20491;-28
2021/05/11 11:26:57;;;;;;;11.05;3.72;;;;;;;27.76;30.43;95654.06;5018712;28;20454;-31
2021/05/11 11:29:22;;;;;;;6.75;3.35;;;;;;;27.78;30.33;95662.69;5027447;28;21055;-30
2021/05/11 11:31:51;;;;;;;4.03;2.90;;;;;;;27.80;30.38;95665.22;5024689;28;20040;-28
2021/05/11 11:34:20;;;;;;;6.40;2.90;;;;;;;27.81;30.40;95667.72;5023380;28;20850;-28
2021/05/11 11:36:56;;;;;;;3.92;2.72;;;;;;;27.83;30.36;95675.47;5026654;28;20086;-29
2021/05/11 11:39:23;;;;;;;3.30;2.63;;;;;;;27.83;30.34;95681.59;5022011;28;20042;-29
2021/05/11 11:41:49;;;;;;;4.28;2.80;;;;;;;27.84;30.23;95693.78;5018965;28;20422;-29
2021/05/11 11:44:19;;;;;;;6.05;2.78;;;;;;;27.85;30.00;95698.13;5025064;28;20033;-28
2021/05/11 11:46:49;;;;;;;4.97;2.33;;;;;;;27.86;30.12;95705.03;5021841;28;20308;-28
2021/05/11 11:49:19;;;;;;;4.97;2.20;;;;;;;27.87;30.22;95708.50;5023886;28;20035;-29
2021/05/11 11:51:55;;;;;;;4.63;1.88;;;;;;;27.86;30.21;95699.78;5024424;28;20020;-27
2021/05/11 11:59:33;;;;;;;4.57;1.80;;;;;;;27.85;30.06;95695.47;5024747;28;20052;-30
2021/05/11 12:02:00;;;;;;;5.15;1.60;;;;;;;27.85;30.01;95689.38;5027719;28;20102;-29
2021/05/11 12:04:26;;;;;;;7.18;1.52;;;;;;;27.84;29.83;95677.16;5026148;28;20128;-27
2021/05/11 12:06:52;;;;;;;5.80;1.50;;;;;;;27.82;29.83;95669.38;5028554;28;20051;-30
2021/05/11 12:09:18;;;;;;;2.65;1.33;;;;;;;27.82;29.77;95669.38;5023657;28;20480;-28
2021/05/11 12:11:44;;;;;;;2.85;1.30;;;;;;;27.82;29.94;95660.66;5029648;28;20021;-32
2021/05/11 12:14:09;;;;;;;12.02;1.58;;;;;;;27.82;30.33;95669.38;5023797;28;20588;-30
2021/05/11 12:16:45;;;;;;;9.52;1.88;;;;;;;27.81;30.03;95667.72;5027957;28;20032;-29
2021/05/11 12:19:20;;;;;;;24.15;8.77;;;;;;;27.81;30.16;95673.00;5032995;28;20053;-29
2021/05/11 12:21:58;;;;;;;146.70;51.60;;;;;;;27.81;30.14;95678.25;5028214;28;20161;-29
2021/05/11 12:24:25;;;;;;;324.13;129.95;;;;;;;27.79;30.15;95690.69;5027734;28;20638;-29
2021/05/11 12:26:51;;;;;;;367.23;151.52;;;;;;;27.79;30.15;95695.94;5026123;28;20116;-29
2021/05/11 12:29:17;;;;;;;310.52;137.40;;;;;;;27.79;30.25;95701.22;5025801;28;20036;-29
2021/05/11 12:31:47;;;;;;;247.30;101.22;;;;;;;27.78;30.39;95707.44;5031420;28;20813;-29
2021/05/11 12:34:21;;;;;;;158.55;64.57;;;;;;;27.77;30.31;95708.41;5032768;28;20031;-29
2021/05/11 12:36:51;;;;;;;150.43;61.28;;;;;;;27.76;30.21;95722.50;5028101;28;20131;-29
2021/05/11 12:42:14;;;;;;;111.80;48.30;;;;;;;27.74;30.28;95708.63;5036678;28;20620;-32
2021/05/11 12:44:39;;;;;;;98.38;42.85;;;;;;;27.72;30.19;95711.38;5035271;28;20028;-29
2021/05/11 12:47:06;;;;;;;94.43;40.53;;;;;;;27.72;30.27;95713.19;5037622;28;20028;-29
2021/05/11 12:49:31;;;;;;;104.68;46.95;;;;;;;27.71;30.48;95711.50;5032315;28;20036;-29
2021/05/11 12:51:57;;;;;;;88.45;36.00;;;;;;;27.71;30.49;95714.13;5034216;28;20020;-30
2021/05/11 12:54:27;;;;;;;88.65;37.13;;;;;;;27.69;30.68;95716.88;5025950;28;20036;-28
2021/05/11 12:59:43;;;;;;;85.55;40.28;;;;;;;27.70;30.61;95701.94;5027588;28;20186;-28
2021/05/11 13:03:09;;;;;;;104.00;48.17;;;;;;;27.73;30.63;95718.31;5022292;28;20214;-30
2021/05/11 13:27:40;;;;;;;64.32;34.13;;;;;;;27.94;30.88;95745.72;5037309;28;20232;-30
2021/05/11 13:32:19;;;;;;;69.40;33.28;;;;;;;27.97;30.92;95750.75;5032771;28;20120;-34
2021/05/11 13:34:45;;;;;;;53.25;29.15;;;;;;;27.98;30.90;95762.94;5041769;28;20539;-32
2021/05/11 13:37:10;;;;;;;75.18;30.95;;;;;;;28.01;31.00;95778.50;5038137;28;20110;-30
2021/05/11 13:39:36;;;;;;;49.00;27.35;;;;;;;28.02;30.95;95774.91;5040152;28;20511;-29
2021/05/11 13:42:01;;;;;;;59.75;27.80;;;;;;;28.02;30.91;95780.19;5038270;28;20060;-29
2021/05/11 13:44:26;;;;;;;55.15;27.50;;;;;;;28.03;30.91;95779.22;5040720;28;20036;-29
2021/05/11 13:46:52;;;;;;;50.20;25.63;;;;;;;28.04;31.02;95788.81;5035277;28;20032;-28
2021/05/11 13:49:19;;;;;;;49.85;25.98;;;;;;;28.06;30.82;95791.34;5041758;28;20032;-29
2021/05/11 13:51:44;;;;;;;53.75;25.00;;;;;;;28.06;30.87;95788.69;5041310;28;20107;-32
2021/05/11 13:54:12;;;;;;;51.30;24.45;;;;;;;28.07;30.89;95782.47;5037748;28;20033;-29
2021/05/11 14:04:19;;;;;;;40.15;21.10;;;;;;;28.10;30.98;95777.78;5040019;28;20025;-33
2021/05/11 14:06:46;;;;;;;43.20;21.20;;;;;;;28.10;30.86;95788.31;5040570;28;20052;-30
2021/05/11 14:09:12;;;;;;;40.03;20.10;;;;;;;28.11;30.71;95784.72;5037377;28;20029;-28
2021/05/11 14:11:39;;;;;;;39.25;20.20;;;;;;;28.11;31.00;95794.44;5036541;28;20036;-29
2021/05/11 14:14:04;;;;;;;35.30;19.77;;;;;;;28.12;30.96;95786.44;5039618;28;20618;-28
2021/05/11 14:16:30;;;;;;;36.55;18.80;;;;;;;28.12;30.79;95791.69;5035348;28;20334;-30
2021/05/11 14:18:55;;;;;;;35.97;19.65;;;;;;;28.13;30.90;95803.91;5037414;28;20028;-28
2021/05/11 14:21:21;;;;;;;39.20;18.65;;;;;;;28.13;31.00;95798.63;5033043;28;20040;-30
2021/05/11 14:23:46;;;;;;;30.48;17.17;;;;;;;28.15;30.99;95795.88;5029398;28;20530;-29
2021/05/11 14:26:12;;;;;;;30.83;17.70;;;;;;;28.14;31.09;95789.75;5033012;28;20036;-30
2021/05/11 14:28:37;;;;;;;31.92;17.35;;;;;;;28.14;30.92;95784.50;5039482;28;20020;-28
2021/05/11 14:31:02;;;;;;;33.90;16.98;;;;;;;28.15;30.88;95787.97;5035963;28;20051;-30
2021/05/11 14:33:28;;;;;;;34.60;17.33;;;;;;;28.15;30.87;95785.34;5031070;28;20614;-30
2021/05/11 14:35:55;;;;;;;30.95;16.50;;;;;;;28.15;30.89;95780.06;5035464;28;20029;-28
2021/05/11 14:38:23;;;;;;;29.15;16.58;;;;;;;28.15;30.93;95786.16;5040729;28;20032;-31
2021/05/11 14:40:49;;;;;;;29.00;15.82;;;;;;;28.15;30.94;95786.16;5035391;28;20428;-31
2021/05/11 14:43:14;;;;;;;29.83;15.80;;;;;;;28.17;31.01;95786.88;5041344;28;20044;-32
2021/05/11 14:45:39;;;;;;;28.45;15.85;;;;;;;28.16;31.00;95787.84;5037859;28;20803;-29
2021/05/11 14:48:05;;;;;;;26.02;15.07;;;;;;;28.16;30.90;95803.66;5036542;28;20474;-28
2021/05/11 14:50:30;;;;;;;29.67;15.77;;;;;;;28.16;30.89;95798.41;5030865;28;20123;-27
2021/05/11 14:52:58;;;;;;;26.05;14.60;;;;;;;28.16;31.05;95808.94;5038959;28;20025;-32
2021/05/11 14:55:26;;;;;;;27.25;14.55;;;;;;;28.17;30.81;95800.06;5038975;28;20025;-31
2021/05/11 14:57:52;;;;;;;27.05;15.02;;;;;;;28.16;30.89;95803.66;5032368;28;20119;-31
2021/05/11 15:00:18;;;;;;;25.27;13.45;;;;;;;28.17;30.88;95805.31;5030991;28;20030;-29
2021/05/11 15:02:44;;;;;;;26.60;14.15;;;;;;;28.16;31.08;95795.75;5033801;28;20077;-27
2021/05/11 15:05:09;;;;;;;26.55;13.57;;;;;;;28.14;31.06;95802.94;5038099;28;20075;-31
2021/05/11 15:07:35;;;;;;;24.05;12.85;;;;;;;28.18;30.91;95811.41;5036807;28;20031;-31
2021/05/11 15:10:00;;;;;;;22.08;12.75;;;;;;;28.18;30.71;95829.84;5034619;28;20041;-31
2021/05/11 15:12:26;;;;;;;23.30;12.43;;;;;;;28.17;31.10;95828.19;5038365;28;20021;-32
2021/05/11 15:14:52;;;;;;;24.33;12.40;;;;;;;28.17;31.08;95821.13;5037544;28;20032;-29
2021/05/11 15:19:59;;;;;;;23.75;12.15;;;;;;;28.18;31.10;95814.91;5035696;28;20029;-32
2021/05/11 15:22:25;;;;;;;24.08;12.13;;;;;;;28.17;30.94;95810.59;5038407;28;20064;-33
2021/05/11 15:24:50;;;;;;;19.50;11.68;;;;;;;28.17;31.08;95813.22;5038266;28;20032;-26
2021/05/11 15:27:16;;;;;;;21.88;12.38;;;;;;;28.18;30.91;95816.69;5028291;28;20037;-30
2021/05/11 15:29:41;;;;;;;21.02;11.80;;;;;;;28.18;31.11;95816.69;5027837;28;20499;-32
2021/05/11 15:32:38;;;;;;;19.77;10.30;;;;;;;28.18;30.89;95821.94;5030158;28;20041;-31
2021/05/11 15:35:05;;;;;;;22.88;11.18;;;;;;;28.18;30.86;95822.81;5026951;28;20029;-28
2021/05/11 15:37:30;;;;;;;20.17;10.90;;;;;;;28.17;30.94;95834.31;5025337;28;20513;-29
2021/05/11 15:39:56;;;;;;;18.63;10.70;;;;;;;28.18;30.96;95835.13;5027787;28;20028;-31
2021/05/11 15:42:21;;;;;;;26.33;9.57;;;;;;;28.16;31.23;95843.19;5026300;28;20052;-33
2021/05/11 15:44:46;;;;;;;15.02;9.32;;;;;;;28.15;31.43;95852.00;5019666;28;20527;-30
2021/05/11 15:47:15;;;;;;;14.55;8.55;;;;;;;28.13;31.61;95856.56;5019086;28;20029;-32
2021/05/11 15:49:49;;;;;;;17.25;7.88;;;;;;;28.13;31.76;95855.72;5028525;28;20120;-33
2021/05/11 15:52:14;;;;;;;16.48;7.82;;;;;;;28.14;31.88;95858.25;5030820;28;20396;-29
2021/05/11 15:54:40;;;;;;;13.65;7.63;;;;;;;28.20;31.91;95856.09;5029918;28;20032;-34
2021/05/11 15:57:05;;;;;;;19.73;8.20;;;;;;;28.26;31.77;95860.91;5024106;28;20408;-33
2021/05/11 15:59:31;;;;;;;16.63;8.38;;;;;;;28.35;31.60;95860.19;5034886;28;20152;-35
2021/05/11 16:01:56;;;;;;;14.60;8.20;;;;;;;28.46;31.50;95863.78;5031225;28;20032;-35